sensor_id;sensor_type;location;lat;lon;timestamp;temperature;humidity
14210;DHT22;7188;56.070;12.698;2023-06-14T00:00:51;13.50;1.00
14210;DHT22;7188;56.070;12.698;2023-06-14T00:03:18;13.50;1.00
14210;DHT22;7188;56.070;12.698;2023-06-14T00:05:47;13.50;1.00
14210;DHT22;7188;56.070;12.698;2023-06-14T00:08:14;13.50;1.00
14210;DHT22;7188;56.070;12.698;2023-06-14T00:10:40;13.40;1.00
14210;DHT22;7188;56.070;12.698;2023-06-14T00:13:08;13.40;1.00
14210;DHT22;7188;56.070;12.698;2023-06-14T00:15:34;13.40;1.00
14210;DHT22;7188;56.070;12.698;2023-06-14T00:18:00;13.30;1.00
14210;DHT22;7188;56.070;12.698;2023-06-14T00:20:27;13.30;1.00
14210;DHT22;7188;56.070;12.698;2023-06-14T00:22:53;13.30;1.00
14210;DHT22;7188;56.070;12.698;2023-06-14T00:25:22;13.20;1.00
14210;DHT22;7188;56.070;12.698;2023-06-14T00:27:49;13.20;1.00
14210;DHT22;7188;56.070;12.698;2023-06-14T00:30:14;13.10;1.00
14210;DHT22;7188;56.070;12.698;2023-06-14T00:32:40;13.10;1.00
14210;DHT22;7188;56.070;12.698;2023-06-14T00:35:08;13.10;1.00
14210;DHT22;7188;56.070;12.698;2023-06-14T00:37:34;13.10;1.00
14210;DHT22;7188;56.070;12.698;2023-06-14T00:39:59;13.00;1.00
14210;DHT22;7188;56.070;12.698;2023-06-14T00:42:26;13.00;1.00
14210;DHT22;7188;56.070;12.698;2023-06-14T00:44:52;13.00;1.00
14210;DHT22;7188;56.070;12.698;2023-06-14T00:47:18;12.90;1.00
14210;DHT22;7188;56.070;12.698;2023-06-14T00:49:48;12.80;11.60
14210;DHT22;7188;56.070;12.698;2023-06-14T00:52:15;12.80;11.90
14210;DHT22;7188;56.070;12.698;2023-06-14T00:54:42;12.80;1.00
14210;DHT22;7188;56.070;12.698;2023-06-14T00:57:08;12.90;1.00
14210;DHT22;7188;56.070;12.698;2023-06-14T00:59:41;12.80;6.10
14210;DHT22;7188;56.070;12.698;2023-06-14T01:02:08;12.80;12.30
14210;DHT22;7188;56.070;12.698;2023-06-14T01:04:33;12.70;36.30
14210;DHT22;7188;56.070;12.698;2023-06-14T01:07:02;12.80;33.50
14210;DHT22;7188;56.070;12.698;2023-06-14T01:15:34;12.60;54.10
14210;DHT22;7188;56.070;12.698;2023-06-14T01:18:00;12.60;49.60
14210;DHT22;7188;56.070;12.698;2023-06-14T01:20:32;12.50;45.60
14210;DHT22;7188;56.070;12.698;2023-06-14T01:22:58;12.40;59.00
14210;DHT22;7188;56.070;12.698;2023-06-14T01:25:25;12.40;91.20
14210;DHT22;7188;56.070;12.698;2023-06-14T01:27:54;12.40;99.90
14210;DHT22;7188;56.070;12.698;2023-06-14T01:30:22;12.40;99.90
14210;DHT22;7188;56.070;12.698;2023-06-14T01:32:51;12.40;99.90
14210;DHT22;7188;56.070;12.698;2023-06-14T01:35:18;12.50;99.90
14210;DHT22;7188;56.070;12.698;2023-06-14T01:37:44;12.50;68.30
14210;DHT22;7188;56.070;12.698;2023-06-14T01:40:12;12.40;50.10
14210;DHT22;7188;56.070;12.698;2023-06-14T01:42:38;12.40;99.90
14210;DHT22;7188;56.070;12.698;2023-06-14T01:45:06;12.40;99.90
14210;DHT22;7188;56.070;12.698;2023-06-14T01:47:33;12.30;99.90
14210;DHT22;7188;56.070;12.698;2023-06-14T01:49:59;12.20;99.90
14210;DHT22;7188;56.070;12.698;2023-06-14T01:52:25;12.10;99.90
14210;DHT22;7188;56.070;12.698;2023-06-14T01:54:51;12.10;99.90
14210;DHT22;7188;56.070;12.698;2023-06-14T01:57:16;12.10;99.90
14210;DHT22;7188;56.070;12.698;2023-06-14T01:59:42;12.10;99.90
14210;DHT22;7188;56.070;12.698;2023-06-14T02:02:08;12.10;99.90
14210;DHT22;7188;56.070;12.698;2023-06-14T02:04:33;12.10;99.90
14210;DHT22;7188;56.070;12.698;2023-06-14T02:06:59;12.10;99.90
14210;DHT22;7188;56.070;12.698;2023-06-14T02:09:25;12.00;99.90
14210;DHT22;7188;56.070;12.698;2023-06-14T02:11:51;12.00;99.90
14210;DHT22;7188;56.070;12.698;2023-06-14T02:14:16;11.90;99.90
14210;DHT22;7188;56.070;12.698;2023-06-14T02:16:43;11.90;99.90
14210;DHT22;7188;56.070;12.698;2023-06-14T02:19:18;12.00;99.90
14210;DHT22;7188;56.070;12.698;2023-06-14T02:21:44;11.90;99.90
14210;DHT22;7188;56.070;12.698;2023-06-14T02:24:10;11.90;99.90
14210;DHT22;7188;56.070;12.698;2023-06-14T02:26:36;11.90;99.90
14210;DHT22;7188;56.070;12.698;2023-06-14T02:29:07;11.90;99.90
14210;DHT22;7188;56.070;12.698;2023-06-14T02:31:35;12.00;99.90
14210;DHT22;7188;56.070;12.698;2023-06-14T02:34:01;12.10;99.90
14210;DHT22;7188;56.070;12.698;2023-06-14T02:36:26;12.20;99.90
14210;DHT22;7188;56.070;12.698;2023-06-14T02:38:52;12.30;99.90
14210;DHT22;7188;56.070;12.698;2023-06-14T02:41:19;12.10;99.90
14210;DHT22;7188;56.070;12.698;2023-06-14T02:43:45;12.00;99.90
14210;DHT22;7188;56.070;12.698;2023-06-14T02:46:10;11.80;99.90
14210;DHT22;7188;56.070;12.698;2023-06-14T02:48:36;11.90;99.90
14210;DHT22;7188;56.070;12.698;2023-06-14T02:51:02;12.00;99.90
14210;DHT22;7188;56.070;12.698;2023-06-14T02:53:28;12.30;99.90
14210;DHT22;7188;56.070;12.698;2023-06-14T02:55:53;12.70;94.30
14210;DHT22;7188;56.070;12.698;2023-06-14T02:58:21;13.20;1.00
14210;DHT22;7188;56.070;12.698;2023-06-14T03:00:46;13.60;1.00
14210;DHT22;7188;56.070;12.698;2023-06-14T03:03:12;14.00;1.00
14210;DHT22;7188;56.070;12.698;2023-06-14T03:05:44;14.20;1.00
14210;DHT22;7188;56.070;12.698;2023-06-14T03:08:17;14.30;1.00
14210;DHT22;7188;56.070;12.698;2023-06-14T03:10:45;14.40;1.00
14210;DHT22;7188;56.070;12.698;2023-06-14T03:13:12;14.50;1.00
14210;DHT22;7188;56.070;12.698;2023-06-14T03:15:37;14.60;1.00
14210;DHT22;7188;56.070;12.698;2023-06-14T03:18:08;15.00;1.00
14210;DHT22;7188;56.070;12.698;2023-06-14T03:20:35;15.40;1.00
14210;DHT22;7188;56.070;12.698;2023-06-14T03:23:01;15.70;1.00
14210;DHT22;7188;56.070;12.698;2023-06-14T03:25:28;15.80;1.00
14210;DHT22;7188;56.070;12.698;2023-06-14T03:27:58;15.90;1.00
14210;DHT22;7188;56.070;12.698;2023-06-14T03:30:24;16.10;1.00
14210;DHT22;7188;56.070;12.698;2023-06-14T03:32:50;16.10;1.00
14210;DHT22;7188;56.070;12.698;2023-06-14T03:35:18;16.20;1.00
14210;DHT22;7188;56.070;12.698;2023-06-14T03:37:45;16.20;1.00
14210;DHT22;7188;56.070;12.698;2023-06-14T03:40:12;16.30;1.00
14210;DHT22;7188;56.070;12.698;2023-06-14T03:42:38;16.20;1.00
14210;DHT22;7188;56.070;12.698;2023-06-14T03:45:04;16.00;1.00
14210;DHT22;7188;56.070;12.698;2023-06-14T03:47:30;16.00;1.00
14210;DHT22;7188;56.070;12.698;2023-06-14T03:50:02;16.00;1.00
14210;DHT22;7188;56.070;12.698;2023-06-14T03:52:29;16.00;1.00
14210;DHT22;7188;56.070;12.698;2023-06-14T03:54:55;16.10;1.00
14210;DHT22;7188;56.070;12.698;2023-06-14T03:57:21;16.10;1.00
14210;DHT22;7188;56.070;12.698;2023-06-14T03:59:47;16.20;1.00
14210;DHT22;7188;56.070;12.698;2023-06-14T04:02:13;16.30;1.00
14210;DHT22;7188;56.070;12.698;2023-06-14T04:04:41;16.40;1.00
14210;DHT22;7188;56.070;12.698;2023-06-14T04:07:12;16.50;1.00
14210;DHT22;7188;56.070;12.698;2023-06-14T04:09:39;16.60;1.00
14210;DHT22;7188;56.070;12.698;2023-06-14T04:12:05;16.60;1.00
14210;DHT22;7188;56.070;12.698;2023-06-14T04:14:32;16.70;1.00
14210;DHT22;7188;56.070;12.698;2023-06-14T04:16:59;16.90;1.00
14210;DHT22;7188;56.070;12.698;2023-06-14T04:19:24;17.10;1.00
14210;DHT22;7188;56.070;12.698;2023-06-14T04:21:50;17.40;1.00
14210;DHT22;7188;56.070;12.698;2023-06-14T04:24:16;17.50;99.90
14210;DHT22;7188;56.070;12.698;2023-06-14T04:26:43;17.70;99.90
14210;DHT22;7188;56.070;12.698;2023-06-14T04:29:14;17.90;99.90
14210;DHT22;7188;56.070;12.698;2023-06-14T04:31:41;18.10;99.90
14210;DHT22;7188;56.070;12.698;2023-06-14T04:34:07;18.50;99.90
14210;DHT22;7188;56.070;12.698;2023-06-14T04:36:34;18.80;99.90
14210;DHT22;7188;56.070;12.698;2023-06-14T04:39:02;19.00;99.90
14210;DHT22;7188;56.070;12.698;2023-06-14T04:41:30;19.00;99.90
14210;DHT22;7188;56.070;12.698;2023-06-14T04:43:56;18.80;99.90
14210;DHT22;7188;56.070;12.698;2023-06-14T04:46:24;18.50;99.90
14210;DHT22;7188;56.070;12.698;2023-06-14T04:48:49;18.40;99.90
14210;DHT22;7188;56.070;12.698;2023-06-14T04:51:16;18.60;99.90
14210;DHT22;7188;56.070;12.698;2023-06-14T04:53:42;18.80;99.90
14210;DHT22;7188;56.070;12.698;2023-06-14T04:56:08;19.00;99.90
14210;DHT22;7188;56.070;12.698;2023-06-14T04:58:34;19.20;99.90
14210;DHT22;7188;56.070;12.698;2023-06-14T05:00:59;19.30;99.90
14210;DHT22;7188;56.070;12.698;2023-06-14T05:03:26;19.40;99.90
14210;DHT22;7188;56.070;12.698;2023-06-14T05:12:37;19.40;99.90
14210;DHT22;7188;56.070;12.698;2023-06-14T05:15:02;19.60;99.90
14210;DHT22;7188;56.070;12.698;2023-06-14T05:17:28;19.80;99.90
14210;DHT22;7188;56.070;12.698;2023-06-14T05:19:54;19.90;99.90
14210;DHT22;7188;56.070;12.698;2023-06-14T05:22:21;20.10;99.90
14210;DHT22;7188;56.070;12.698;2023-06-14T05:24:47;20.30;99.90
14210;DHT22;7188;56.070;12.698;2023-06-14T05:27:13;20.40;99.90
14210;DHT22;7188;56.070;12.698;2023-06-14T05:29:39;20.30;99.90
14210;DHT22;7188;56.070;12.698;2023-06-14T05:32:05;20.60;99.90
14210;DHT22;7188;56.070;12.698;2023-06-14T05:34:31;20.50;99.90
14210;DHT22;7188;56.070;12.698;2023-06-14T05:36:57;20.70;99.90
14210;DHT22;7188;56.070;12.698;2023-06-14T05:39:22;20.80;99.90
14210;DHT22;7188;56.070;12.698;2023-06-14T05:41:49;20.70;99.90
14210;DHT22;7188;56.070;12.698;2023-06-14T05:44:15;20.70;99.90
14210;DHT22;7188;56.070;12.698;2023-06-14T05:46:41;20.60;99.90
14210;DHT22;7188;56.070;12.698;2023-06-14T05:49:06;20.60;99.90
14210;DHT22;7188;56.070;12.698;2023-06-14T05:51:32;20.70;99.90
14210;DHT22;7188;56.070;12.698;2023-06-14T05:53:58;20.70;99.90
14210;DHT22;7188;56.070;12.698;2023-06-14T05:56:24;20.80;99.90
14210;DHT22;7188;56.070;12.698;2023-06-14T05:58:50;21.00;99.90
14210;DHT22;7188;56.070;12.698;2023-06-14T06:01:16;21.10;99.90
14210;DHT22;7188;56.070;12.698;2023-06-14T06:03:42;21.30;99.90
14210;DHT22;7188;56.070;12.698;2023-06-14T06:06:11;21.40;99.90
14210;DHT22;7188;56.070;12.698;2023-06-14T06:08:37;21.30;99.90
14210;DHT22;7188;56.070;12.698;2023-06-14T06:11:02;21.50;99.90
14210;DHT22;7188;56.070;12.698;2023-06-14T06:13:28;21.50;99.90
14210;DHT22;7188;56.070;12.698;2023-06-14T06:15:53;21.30;99.90
14210;DHT22;7188;56.070;12.698;2023-06-14T06:18:19;21.50;99.90
14210;DHT22;7188;56.070;12.698;2023-06-14T06:20:45;21.50;99.90
14210;DHT22;7188;56.070;12.698;2023-06-14T06:23:12;21.30;99.90
14210;DHT22;7188;56.070;12.698;2023-06-14T06:25:38;21.40;99.90
14210;DHT22;7188;56.070;12.698;2023-06-14T06:28:03;21.60;99.90
14210;DHT22;7188;56.070;12.698;2023-06-14T06:30:29;21.60;99.90
14210;DHT22;7188;56.070;12.698;2023-06-14T06:32:55;21.70;99.90
14210;DHT22;7188;56.070;12.698;2023-06-14T06:35:24;21.80;99.90
14210;DHT22;7188;56.070;12.698;2023-06-14T06:37:53;21.70;99.90
14210;DHT22;7188;56.070;12.698;2023-06-14T06:40:18;21.60;99.90
14210;DHT22;7188;56.070;12.698;2023-06-14T06:42:44;21.60;99.90
14210;DHT22;7188;56.070;12.698;2023-06-14T06:45:10;21.70;99.90
14210;DHT22;7188;56.070;12.698;2023-06-14T06:47:35;21.50;99.90
14210;DHT22;7188;56.070;12.698;2023-06-14T06:50:01;21.40;99.90
14210;DHT22;7188;56.070;12.698;2023-06-14T06:52:27;21.30;99.90
14210;DHT22;7188;56.070;12.698;2023-06-14T06:54:52;21.30;99.90
14210;DHT22;7188;56.070;12.698;2023-06-14T06:57:20;21.40;99.90
14210;DHT22;7188;56.070;12.698;2023-06-14T06:59:48;21.50;99.90
14210;DHT22;7188;56.070;12.698;2023-06-14T07:02:14;21.40;99.90
14210;DHT22;7188;56.070;12.698;2023-06-14T07:04:40;21.40;99.90
14210;DHT22;7188;56.070;12.698;2023-06-14T07:07:06;21.40;99.90
14210;DHT22;7188;56.070;12.698;2023-06-14T07:09:32;21.50;99.90
14210;DHT22;7188;56.070;12.698;2023-06-14T07:11:58;21.80;99.90
14210;DHT22;7188;56.070;12.698;2023-06-14T07:14:23;21.80;99.90
14210;DHT22;7188;56.070;12.698;2023-06-14T07:16:49;21.70;99.90
14210;DHT22;7188;56.070;12.698;2023-06-14T07:19:15;21.60;99.90
14210;DHT22;7188;56.070;12.698;2023-06-14T07:21:41;21.50;99.90
14210;DHT22;7188;56.070;12.698;2023-06-14T07:24:07;21.50;99.90
14210;DHT22;7188;56.070;12.698;2023-06-14T07:26:33;21.50;99.90
14210;DHT22;7188;56.070;12.698;2023-06-14T07:28:59;21.70;99.90
14210;DHT22;7188;56.070;12.698;2023-06-14T07:31:25;21.60;99.90
14210;DHT22;7188;56.070;12.698;2023-06-14T07:33:52;21.80;99.90
14210;DHT22;7188;56.070;12.698;2023-06-14T07:36:17;21.80;99.90
14210;DHT22;7188;56.070;12.698;2023-06-14T07:38:43;21.80;99.90
14210;DHT22;7188;56.070;12.698;2023-06-14T07:41:09;21.90;99.90
14210;DHT22;7188;56.070;12.698;2023-06-14T07:43:34;21.80;99.90
14210;DHT22;7188;56.070;12.698;2023-06-14T07:46:00;21.90;99.90
14210;DHT22;7188;56.070;12.698;2023-06-14T07:48:27;21.90;99.90
14210;DHT22;7188;56.070;12.698;2023-06-14T07:50:53;21.70;99.90
14210;DHT22;7188;56.070;12.698;2023-06-14T07:53:18;21.90;99.90
14210;DHT22;7188;56.070;12.698;2023-06-14T07:55:44;22.00;99.90
14210;DHT22;7188;56.070;12.698;2023-06-14T07:58:10;22.00;99.90
14210;DHT22;7188;56.070;12.698;2023-06-14T08:00:36;22.00;99.90
14210;DHT22;7188;56.070;12.698;2023-06-14T08:03:01;21.90;99.90
14210;DHT22;7188;56.070;12.698;2023-06-14T08:05:28;22.20;99.90
14210;DHT22;7188;56.070;12.698;2023-06-14T08:07:54;22.50;99.90
14210;DHT22;7188;56.070;12.698;2023-06-14T08:10:21;22.80;99.90
14210;DHT22;7188;56.070;12.698;2023-06-14T08:12:47;22.60;99.90
14210;DHT22;7188;56.070;12.698;2023-06-14T08:15:16;22.60;99.90
14210;DHT22;7188;56.070;12.698;2023-06-14T08:17:45;22.60;99.90
14210;DHT22;7188;56.070;12.698;2023-06-14T08:20:12;22.50;99.90
14210;DHT22;7188;56.070;12.698;2023-06-14T08:22:39;22.50;99.90
14210;DHT22;7188;56.070;12.698;2023-06-14T08:25:08;22.40;99.90
14210;DHT22;7188;56.070;12.698;2023-06-14T08:27:34;22.60;99.90
14210;DHT22;7188;56.070;12.698;2023-06-14T08:30:00;22.50;99.90
14210;DHT22;7188;56.070;12.698;2023-06-14T08:32:25;22.70;99.90
14210;DHT22;7188;56.070;12.698;2023-06-14T08:34:51;22.80;99.90
14210;DHT22;7188;56.070;12.698;2023-06-14T08:37:17;23.00;99.90
14210;DHT22;7188;56.070;12.698;2023-06-14T08:39:42;23.20;99.90
14210;DHT22;7188;56.070;12.698;2023-06-14T08:42:10;23.30;99.90
14210;DHT22;7188;56.070;12.698;2023-06-14T08:44:36;23.60;99.90
14210;DHT22;7188;56.070;12.698;2023-06-14T08:47:01;23.30;99.90
14210;DHT22;7188;56.070;12.698;2023-06-14T08:49:29;23.20;99.90
14210;DHT22;7188;56.070;12.698;2023-06-14T08:52:00;23.20;99.90
14210;DHT22;7188;56.070;12.698;2023-06-14T08:54:28;23.30;99.90
14210;DHT22;7188;56.070;12.698;2023-06-14T08:56:56;23.10;99.90
14210;DHT22;7188;56.070;12.698;2023-06-14T08:59:27;23.20;99.90
14210;DHT22;7188;56.070;12.698;2023-06-14T09:01:54;23.30;99.90
14210;DHT22;7188;56.070;12.698;2023-06-14T09:04:21;23.10;99.90
14210;DHT22;7188;56.070;12.698;2023-06-14T09:06:48;23.10;99.90
14210;DHT22;7188;56.070;12.698;2023-06-14T09:09:20;23.10;99.90
14210;DHT22;7188;56.070;12.698;2023-06-14T09:11:49;23.10;99.90
14210;DHT22;7188;56.070;12.698;2023-06-14T09:14:15;23.50;99.90
14210;DHT22;7188;56.070;12.698;2023-06-14T09:16:41;23.80;99.90
14210;DHT22;7188;56.070;12.698;2023-06-14T09:19:06;23.80;99.90
14210;DHT22;7188;56.070;12.698;2023-06-14T09:21:34;23.60;99.90
14210;DHT22;7188;56.070;12.698;2023-06-14T09:24:01;23.40;99.90
14210;DHT22;7188;56.070;12.698;2023-06-14T09:26:27;23.60;99.90
14210;DHT22;7188;56.070;12.698;2023-06-14T09:28:53;23.80;99.90
14210;DHT22;7188;56.070;12.698;2023-06-14T09:31:21;23.90;99.90
14210;DHT22;7188;56.070;12.698;2023-06-14T09:33:49;24.00;99.90
14210;DHT22;7188;56.070;12.698;2023-06-14T09:36:24;24.10;99.90
14210;DHT22;7188;56.070;12.698;2023-06-14T09:39:01;24.30;99.90
14210;DHT22;7188;56.070;12.698;2023-06-14T09:41:35;24.40;99.90
14210;DHT22;7188;56.070;12.698;2023-06-14T09:44:02;24.60;99.90
14210;DHT22;7188;56.070;12.698;2023-06-14T09:46:28;24.70;99.90
14210;DHT22;7188;56.070;12.698;2023-06-14T09:48:55;24.70;99.90
14210;DHT22;7188;56.070;12.698;2023-06-14T09:51:23;24.50;99.90
14210;DHT22;7188;56.070;12.698;2023-06-14T09:53:49;24.40;99.90
14210;DHT22;7188;56.070;12.698;2023-06-14T09:56:29;24.30;99.90
14210;DHT22;7188;56.070;12.698;2023-06-14T09:58:56;24.20;99.90
14210;DHT22;7188;56.070;12.698;2023-06-14T10:01:27;24.10;99.90
14210;DHT22;7188;56.070;12.698;2023-06-14T10:04:00;24.00;99.90
14210;DHT22;7188;56.070;12.698;2023-06-14T10:06:29;24.20;99.90
14210;DHT22;7188;56.070;12.698;2023-06-14T10:08:58;24.30;99.90
14210;DHT22;7188;56.070;12.698;2023-06-14T10:11:26;24.30;99.90
14210;DHT22;7188;56.070;12.698;2023-06-14T10:13:53;24.30;99.90
14210;DHT22;7188;56.070;12.698;2023-06-14T10:22:12;24.20;99.90
14210;DHT22;7188;56.070;12.698;2023-06-14T10:24:44;23.70;99.90
14210;DHT22;7188;56.070;12.698;2023-06-14T10:27:13;23.20;99.90
14210;DHT22;7188;56.070;12.698;2023-06-14T10:30:01;23.10;99.90
14210;DHT22;7188;56.070;12.698;2023-06-14T10:32:27;23.30;99.90
14210;DHT22;7188;56.070;12.698;2023-06-14T10:34:56;23.30;99.90
14210;DHT22;7188;56.070;12.698;2023-06-14T10:37:22;23.50;99.90
14210;DHT22;7188;56.070;12.698;2023-06-14T10:39:47;23.50;99.90
14210;DHT22;7188;56.070;12.698;2023-06-14T10:42:14;23.40;99.90
14210;DHT22;7188;56.070;12.698;2023-06-14T10:44:45;23.60;99.90
14210;DHT22;7188;56.070;12.698;2023-06-14T10:47:38;23.80;99.90
14210;DHT22;7188;56.070;12.698;2023-06-14T10:50:09;24.00;99.90
14210;DHT22;7188;56.070;12.698;2023-06-14T10:52:40;24.00;99.90
14210;DHT22;7188;56.070;12.698;2023-06-14T10:55:17;23.80;99.90
14210;DHT22;7188;56.070;12.698;2023-06-14T11:00:18;23.80;99.90
14210;DHT22;7188;56.070;12.698;2023-06-14T11:05:27;23.70;99.90
14210;DHT22;7188;56.070;12.698;2023-06-14T11:11:01;23.30;99.90
14210;DHT22;7188;56.070;12.698;2023-06-14T11:13:31;23.30;99.90
14210;DHT22;7188;56.070;12.698;2023-06-14T11:15:57;23.20;99.90
14210;DHT22;7188;56.070;12.698;2023-06-14T11:18:24;23.20;99.90
14210;DHT22;7188;56.070;12.698;2023-06-14T11:20:50;23.40;99.90
14210;DHT22;7188;56.070;12.698;2023-06-14T11:23:16;23.40;99.90
14210;DHT22;7188;56.070;12.698;2023-06-14T11:25:42;23.60;99.90
14210;DHT22;7188;56.070;12.698;2023-06-14T11:28:07;23.70;99.90
14210;DHT22;7188;56.070;12.698;2023-06-14T11:30:33;23.60;99.90
14210;DHT22;7188;56.070;12.698;2023-06-14T11:32:59;23.20;99.90
14210;DHT22;7188;56.070;12.698;2023-06-14T11:35:26;23.20;99.90
14210;DHT22;7188;56.070;12.698;2023-06-14T11:37:55;23.30;99.90
14210;DHT22;7188;56.070;12.698;2023-06-14T11:40:26;23.40;99.90
14210;DHT22;7188;56.070;12.698;2023-06-14T11:43:00;23.40;99.90
14210;DHT22;7188;56.070;12.698;2023-06-14T11:45:26;23.40;99.90
14210;DHT22;7188;56.070;12.698;2023-06-14T11:47:55;23.50;99.90
14210;DHT22;7188;56.070;12.698;2023-06-14T11:50:22;23.60;99.90
14210;DHT22;7188;56.070;12.698;2023-06-14T11:52:58;23.80;99.90
14210;DHT22;7188;56.070;12.698;2023-06-14T11:55:39;23.80;99.90
14210;DHT22;7188;56.070;12.698;2023-06-14T11:58:06;23.80;99.90
14210;DHT22;7188;56.070;12.698;2023-06-14T12:00:35;23.90;99.90
14210;DHT22;7188;56.070;12.698;2023-06-14T12:03:02;23.90;99.90
14210;DHT22;7188;56.070;12.698;2023-06-14T12:05:28;23.90;99.90
14210;DHT22;7188;56.070;12.698;2023-06-14T12:08:02;23.90;99.90
14210;DHT22;7188;56.070;12.698;2023-06-14T12:10:28;23.70;99.90
14210;DHT22;7188;56.070;12.698;2023-06-14T12:13:00;23.50;99.90
14210;DHT22;7188;56.070;12.698;2023-06-14T12:15:28;23.50;99.90
14210;DHT22;7188;56.070;12.698;2023-06-14T12:17:55;23.60;99.90
14210;DHT22;7188;56.070;12.698;2023-06-14T12:20:20;23.70;99.90
14210;DHT22;7188;56.070;12.698;2023-06-14T12:22:54;23.90;99.90
14210;DHT22;7188;56.070;12.698;2023-06-14T12:25:32;24.20;99.90
14210;DHT22;7188;56.070;12.698;2023-06-14T12:28:05;24.20;99.90
14210;DHT22;7188;56.070;12.698;2023-06-14T12:30:32;24.30;99.90
14210;DHT22;7188;56.070;12.698;2023-06-14T12:32:58;24.30;99.90
14210;DHT22;7188;56.070;12.698;2023-06-14T12:35:24;24.40;99.90
14210;DHT22;7188;56.070;12.698;2023-06-14T12:37:49;24.30;99.90
14210;DHT22;7188;56.070;12.698;2023-06-14T12:40:15;24.40;99.90
14210;DHT22;7188;56.070;12.698;2023-06-14T12:42:41;24.50;99.90
14210;DHT22;7188;56.070;12.698;2023-06-14T12:45:08;24.60;99.90
14210;DHT22;7188;56.070;12.698;2023-06-14T12:47:34;24.50;99.90
14210;DHT22;7188;56.070;12.698;2023-06-14T12:49:59;24.60;99.90
14210;DHT22;7188;56.070;12.698;2023-06-14T12:52:25;24.80;99.90
14210;DHT22;7188;56.070;12.698;2023-06-14T12:54:51;24.90;99.90
14210;DHT22;7188;56.070;12.698;2023-06-14T12:57:16;25.00;99.90
14210;DHT22;7188;56.070;12.698;2023-06-14T12:59:42;24.80;99.90
14210;DHT22;7188;56.070;12.698;2023-06-14T13:02:15;24.80;99.90
14210;DHT22;7188;56.070;12.698;2023-06-14T13:04:42;24.80;99.90
14210;DHT22;7188;56.070;12.698;2023-06-14T13:07:07;24.70;99.90
14210;DHT22;7188;56.070;12.698;2023-06-14T13:09:33;24.50;99.90
14210;DHT22;7188;56.070;12.698;2023-06-14T13:11:59;24.30;99.90
14210;DHT22;7188;56.070;12.698;2023-06-14T13:14:25;24.30;99.90
14210;DHT22;7188;56.070;12.698;2023-06-14T13:16:50;24.20;99.90
14210;DHT22;7188;56.070;12.698;2023-06-14T13:19:16;24.10;99.90
14210;DHT22;7188;56.070;12.698;2023-06-14T13:21:42;24.40;99.90
14210;DHT22;7188;56.070;12.698;2023-06-14T13:24:07;24.60;99.90
14210;DHT22;7188;56.070;12.698;2023-06-14T13:26:34;24.60;99.90
14210;DHT22;7188;56.070;12.698;2023-06-14T13:28:59;24.70;99.90
14210;DHT22;7188;56.070;12.698;2023-06-14T13:31:25;24.80;99.90
14210;DHT22;7188;56.070;12.698;2023-06-14T13:33:51;24.80;99.90
14210;DHT22;7188;56.070;12.698;2023-06-14T13:36:17;24.70;99.90
14210;DHT22;7188;56.070;12.698;2023-06-14T13:38:42;24.70;99.90
14210;DHT22;7188;56.070;12.698;2023-06-14T13:41:08;24.80;99.90
14210;DHT22;7188;56.070;12.698;2023-06-14T13:43:35;24.80;99.90
14210;DHT22;7188;56.070;12.698;2023-06-14T13:46:00;24.80;99.90
14210;DHT22;7188;56.070;12.698;2023-06-14T13:48:26;24.50;99.90
14210;DHT22;7188;56.070;12.698;2023-06-14T13:50:52;24.00;99.90
14210;DHT22;7188;56.070;12.698;2023-06-14T13:53:18;23.80;99.90
14210;DHT22;7188;56.070;12.698;2023-06-14T13:55:43;23.90;99.90
14210;DHT22;7188;56.070;12.698;2023-06-14T13:58:09;23.90;99.90
14210;DHT22;7188;56.070;12.698;2023-06-14T14:00:35;23.90;99.90
14210;DHT22;7188;56.070;12.698;2023-06-14T14:03:06;23.90;99.90
14210;DHT22;7188;56.070;12.698;2023-06-14T14:05:31;23.90;99.90
14210;DHT22;7188;56.070;12.698;2023-06-14T14:07:57;24.10;99.90
14210;DHT22;7188;56.070;12.698;2023-06-14T14:10:24;24.30;99.90
14210;DHT22;7188;56.070;12.698;2023-06-14T14:12:51;24.40;99.90
14210;DHT22;7188;56.070;12.698;2023-06-14T14:15:18;24.20;99.90
14210;DHT22;7188;56.070;12.698;2023-06-14T14:17:44;23.90;99.90
14210;DHT22;7188;56.070;12.698;2023-06-14T14:20:10;23.90;99.90
14210;DHT22;7188;56.070;12.698;2023-06-14T14:22:42;24.10;99.90
14210;DHT22;7188;56.070;12.698;2023-06-14T14:25:09;24.30;99.90
14210;DHT22;7188;56.070;12.698;2023-06-14T14:27:35;24.20;99.90
14210;DHT22;7188;56.070;12.698;2023-06-14T14:30:03;24.20;99.90
14210;DHT22;7188;56.070;12.698;2023-06-14T14:32:28;24.20;99.90
14210;DHT22;7188;56.070;12.698;2023-06-14T14:34:54;24.20;99.90
14210;DHT22;7188;56.070;12.698;2023-06-14T14:37:19;24.10;99.90
14210;DHT22;7188;56.070;12.698;2023-06-14T14:40:01;24.20;99.90
14210;DHT22;7188;56.070;12.698;2023-06-14T14:42:26;24.30;99.90
14210;DHT22;7188;56.070;12.698;2023-06-14T14:44:53;24.30;99.90
14210;DHT22;7188;56.070;12.698;2023-06-14T14:47:19;24.10;99.90
14210;DHT22;7188;56.070;12.698;2023-06-14T14:49:44;24.20;99.90
14210;DHT22;7188;56.070;12.698;2023-06-14T14:52:10;24.30;99.90
14210;DHT22;7188;56.070;12.698;2023-06-14T14:54:35;24.40;99.90
14210;DHT22;7188;56.070;12.698;2023-06-14T14:57:01;24.50;99.90
14210;DHT22;7188;56.070;12.698;2023-06-14T14:59:27;24.60;99.90
14210;DHT22;7188;56.070;12.698;2023-06-14T15:01:53;24.50;99.90
14210;DHT22;7188;56.070;12.698;2023-06-14T15:04:18;24.30;99.90
14210;DHT22;7188;56.070;12.698;2023-06-14T15:06:44;24.30;99.90
14210;DHT22;7188;56.070;12.698;2023-06-14T15:09:10;24.20;99.90
14210;DHT22;7188;56.070;12.698;2023-06-14T15:11:36;24.00;99.90
14210;DHT22;7188;56.070;12.698;2023-06-14T15:14:01;24.10;99.90
14210;DHT22;7188;56.070;12.698;2023-06-14T15:16:27;24.00;99.90
14210;DHT22;7188;56.070;12.698;2023-06-14T15:18:52;24.00;99.90
14210;DHT22;7188;56.070;12.698;2023-06-14T15:21:18;23.90;99.90
14210;DHT22;7188;56.070;12.698;2023-06-14T15:23:45;23.90;99.90
14210;DHT22;7188;56.070;12.698;2023-06-14T15:26:11;23.80;99.90
14210;DHT22;7188;56.070;12.698;2023-06-14T15:28:37;23.80;99.90
14210;DHT22;7188;56.070;12.698;2023-06-14T15:31:03;23.80;99.90
14210;DHT22;7188;56.070;12.698;2023-06-14T15:33:28;23.70;99.90
14210;DHT22;7188;56.070;12.698;2023-06-14T15:35:54;23.80;99.90
14210;DHT22;7188;56.070;12.698;2023-06-14T15:38:20;24.00;99.90
14210;DHT22;7188;56.070;12.698;2023-06-14T15:40:47;24.00;99.90
14210;DHT22;7188;56.070;12.698;2023-06-14T15:43:13;23.90;99.90
14210;DHT22;7188;56.070;12.698;2023-06-14T15:45:38;23.90;99.90
14210;DHT22;7188;56.070;12.698;2023-06-14T15:48:05;23.70;99.90
14210;DHT22;7188;56.070;12.698;2023-06-14T15:50:30;23.60;99.90
14210;DHT22;7188;56.070;12.698;2023-06-14T15:52:57;23.50;99.90
14210;DHT22;7188;56.070;12.698;2023-06-14T15:55:22;23.40;99.90
14210;DHT22;7188;56.070;12.698;2023-06-14T15:57:48;23.50;99.90